Aérodrome :
LOGIN :

S'inscrire | Disclaimer

   EN    FR    IT 

 










Légende :    VFR   VFR Marginal   IFR   IFR Intensif   IFR Très Intensif
Visi : 
Plafond : 
>= 8 km
>= 3000ft
5 à 8 km
1000 à 3000 ft
1500m à 5 km
500 à 1000 ft
800 à 1500m
200 à 500 ft
< 800m
< 200 ft
Symboles :   Orages  Brouillard  Fortes neiges  Fortes précipitations  Vent > 20 kt
SIGMETs :   Divers  Orages  Givrage  Turbulence  Onde Orograph.  Cendres Volcan.







- Altitude de l'aérodrome : 184 ft
- Code IATA : BRU


EBBR - Bruxelles

DERNIER METAR :
  • 301220Z 14015KT CAVOK 19/03 Q1005 NOSIG

METARs EXPIRÉS :
  • 301150Z 14015G27KT 100V190 CAVOK 19/02 Q1005 NOSIG
  • 301120Z 14014G24KT 100V180 CAVOK 18/02 Q1006 NOSIG
  • 301050Z 15014KT 110V170 CAVOK 17/02 Q1007 NOSIG
  • 301020Z 13013G23KT 090V160 CAVOK 17/02 Q1007 NOSIG
  • 300950Z 12013KT CAVOK 16/02 Q1007 NOSIG

TAF TAF EBBR
Valide du 30 à 12h jusqu'au 01 à 18h UTC


301120Z 3012/0118 15015G25KT CAVOK
BECMG 3016/3018 11010KT
BECMG 3023/0101 20010KT
PROB40
TEMPO 0100/0104 4000 RA SHRA BKN012TCU
PROB30
TEMPO 0115/0118 4000 SHRA
BECMG 0116/0118 VRB03KT
Pas de NOTAMs connus pour ce terrain.



MET'MAP, la Météo Aéronautique d'un coup d'oeil ! - Copyright ORBIFLY Décembre 2007 - Disclaimer

ORBIFLY MET'MAP TEAM :

Programmation & Développement : Alexandra Zaïnal
Conception & Développement : Baudouin d'Aumeries
Co-Programmation & Développement : Marc-Olivier Méhu
Soutien technique & logistique : Manuel Goepfert

Contact : metmap@orbifly.com




SOURCES & CREDITS :

   NOAA